sensor_id;sensor_type;location;lat;lon;timestamp;temperature;humidity
3194;DHT22;1608;50.860;13.466;2022-12-18T00:00:13;-8.10;92.50
3194;DHT22;1608;50.860;13.466;2022-12-18T00:02:40;-8.20;92.50
3194;DHT22;1608;50.860;13.466;2022-12-18T00:05:08;-8.30;92.10
3194;DHT22;1608;50.860;13.466;2022-12-18T00:07:35;-8.30;92.20
3194;DHT22;1608;50.860;13.466;2022-12-18T00:10:03;-8.30;92.20
3194;DHT22;1608;50.860;13.466;2022-12-18T00:12:30;-8.40;92.10
3194;DHT22;1608;50.860;13.466;2022-12-18T00:14:57;-8.50;91.80
3194;DHT22;1608;50.860;13.466;2022-12-18T00:17:23;-8.50;91.80
3194;DHT22;1608;50.860;13.466;2022-12-18T00:19:50;-8.50;91.80
3194;DHT22;1608;50.860;13.466;2022-12-18T00:22:18;-8.60;91.70
3194;DHT22;1608;50.860;13.466;2022-12-18T00:24:45;-8.60;91.70
3194;DHT22;1608;50.860;13.466;2022-12-18T00:27:12;-8.80;92.00
3194;DHT22;1608;50.860;13.466;2022-12-18T00:29:42;-8.70;91.90
3194;DHT22;1608;50.860;13.466;2022-12-18T00:32:09;-8.80;92.20
3194;DHT22;1608;50.860;13.466;2022-12-18T00:34:36;-8.80;91.70
3194;DHT22;1608;50.860;13.466;2022-12-18T00:37:02;-8.80;92.10
3194;DHT22;1608;50.860;13.466;2022-12-18T00:39:31;-8.80;92.00
3194;DHT22;1608;50.860;13.466;2022-12-18T00:41:57;-8.80;91.70
3194;DHT22;1608;50.860;13.466;2022-12-18T00:44:41;-9.30;91.20
3194;DHT22;1608;50.860;13.466;2022-12-18T00:47:07;-9.30;91.60
3194;DHT22;1608;50.860;13.466;2022-12-18T00:49:34;-9.40;91.80
3194;DHT22;1608;50.860;13.466;2022-12-18T00:52:01;-9.40;92.10
3194;DHT22;1608;50.860;13.466;2022-12-18T00:54:28;-9.20;92.20
3194;DHT22;1608;50.860;13.466;2022-12-18T00:56:56;-9.20;92.50
3194;DHT22;1608;50.860;13.466;2022-12-18T00:59:23;-9.10;92.10
3194;DHT22;1608;50.860;13.466;2022-12-18T01:01:50;-9.00;91.80
3194;DHT22;1608;50.860;13.466;2022-12-18T01:04:17;-9.00;91.40
3194;DHT22;1608;50.860;13.466;2022-12-18T01:06:43;-9.00;91.70
3194;DHT22;1608;50.860;13.466;2022-12-18T01:09:10;-9.00;91.60
3194;DHT22;1608;50.860;13.466;2022-12-18T01:11:37;-9.00;91.60
3194;DHT22;1608;50.860;13.466;2022-12-18T01:14:05;-9.10;91.30
3194;DHT22;1608;50.860;13.466;2022-12-18T01:16:32;-9.10;91.60
3194;DHT22;1608;50.860;13.466;2022-12-18T01:18:59;-9.10;91.80
3194;DHT22;1608;50.860;13.466;2022-12-18T01:21:25;-9.00;91.90
3194;DHT22;1608;50.860;13.466;2022-12-18T01:23:53;-9.00;91.50
3194;DHT22;1608;50.860;13.466;2022-12-18T01:26:20;-9.00;91.70
3194;DHT22;1608;50.860;13.466;2022-12-18T01:28:48;-8.90;91.40
3194;DHT22;1608;50.860;13.466;2022-12-18T01:31:18;-9.00;91.00
3194;DHT22;1608;50.860;13.466;2022-12-18T01:33:48;-8.70;97.80
3194;DHT22;1608;50.860;13.466;2022-12-18T01:36:18;-9.20;90.80
3194;DHT22;1608;50.860;13.466;2022-12-18T01:38:45;-9.40;90.70
3194;DHT22;1608;50.860;13.466;2022-12-18T01:41:13;-9.50;91.10
3194;DHT22;1608;50.860;13.466;2022-12-18T01:43:48;-10.40;94.60
3194;DHT22;1608;50.860;13.466;2022-12-18T01:46:18;-9.50;91.20
3194;DHT22;1608;50.860;13.466;2022-12-18T01:48:47;-9.40;91.40
3194;DHT22;1608;50.860;13.466;2022-12-18T01:51:16;-9.40;91.50
3194;DHT22;1608;50.860;13.466;2022-12-18T01:53:43;-9.20;97.90
3194;DHT22;1608;50.860;13.466;2022-12-18T01:56:14;-9.40;91.50
3194;DHT22;1608;50.860;13.466;2022-12-18T01:58:48;-9.30;91.30
3194;DHT22;1608;50.860;13.466;2022-12-18T02:01:18;-9.30;90.90
3194;DHT22;1608;50.860;13.466;2022-12-18T02:03:46;-9.20;97.60
3194;DHT22;1608;50.860;13.466;2022-12-18T02:06:16;-7.10;91.90
3194;DHT22;1608;50.860;13.466;2022-12-18T02:08:55;-9.30;90.80
3194;DHT22;1608;50.860;13.466;2022-12-18T02:11:32;-9.30;90.90
3194;DHT22;1608;50.860;13.466;2022-12-18T02:14:07;-9.40;90.70
3194;DHT22;1608;50.860;13.466;2022-12-18T02:16:44;-9.40;90.90
3194;DHT22;1608;50.860;13.466;2022-12-18T02:19:26;-9.40;90.70
3194;DHT22;1608;50.860;13.466;2022-12-18T02:22:01;-9.40;90.50
3194;DHT22;1608;50.860;13.466;2022-12-18T02:24:35;-9.40;90.10
3194;DHT22;1608;50.860;13.466;2022-12-18T02:27:06;-9.40;90.40
3194;DHT22;1608;50.860;13.466;2022-12-18T02:29:36;-9.40;90.50
3194;DHT22;1608;50.860;13.466;2022-12-18T02:32:08;-9.50;90.50
3194;DHT22;1608;50.860;13.466;2022-12-18T02:34:39;-9.50;90.30
3194;DHT22;1608;50.860;13.466;2022-12-18T02:37:09;-9.50;90.50
3194;DHT22;1608;50.860;13.466;2022-12-18T02:39:38;-9.50;90.40
3194;DHT22;1608;50.860;13.466;2022-12-18T02:42:07;-9.60;90.50
3194;DHT22;1608;50.860;13.466;2022-12-18T02:44:34;-9.60;90.40
3194;DHT22;1608;50.860;13.466;2022-12-18T02:47:02;-9.60;90.70
3194;DHT22;1608;50.860;13.466;2022-12-18T02:49:36;-9.60;90.70
3194;DHT22;1608;50.860;13.466;2022-12-18T02:52:14;-9.50;90.50
3194;DHT22;1608;50.860;13.466;2022-12-18T02:55:00;-9.60;89.70
3194;DHT22;1608;50.860;13.466;2022-12-18T02:57:34;-9.70;90.00
3194;DHT22;1608;50.860;13.466;2022-12-18T03:00:06;-9.90;90.10
3194;DHT22;1608;50.860;13.466;2022-12-18T03:02:38;-10.00;90.10
3194;DHT22;1608;50.860;13.466;2022-12-18T03:05:10;-10.10;90.10
3194;DHT22;1608;50.860;13.466;2022-12-18T03:07:42;-10.10;90.50
3194;DHT22;1608;50.860;13.466;2022-12-18T03:10:14;-10.10;90.60
3194;DHT22;1608;50.860;13.466;2022-12-18T03:12:46;-10.10;90.80
3194;DHT22;1608;50.860;13.466;2022-12-18T03:15:18;-9.90;90.50
3194;DHT22;1608;50.860;13.466;2022-12-18T03:17:52;-9.90;90.50
3194;DHT22;1608;50.860;13.466;2022-12-18T03:20:21;-9.80;90.30
3194;DHT22;1608;50.860;13.466;2022-12-18T03:22:51;-9.80;90.10
3194;DHT22;1608;50.860;13.466;2022-12-18T03:25:20;-9.80;89.50
3194;DHT22;1608;50.860;13.466;2022-12-18T03:27:51;-9.80;89.80
3194;DHT22;1608;50.860;13.466;2022-12-18T03:30:20;-9.80;90.10
3194;DHT22;1608;50.860;13.466;2022-12-18T03:32:50;-9.80;90.20
3194;DHT22;1608;50.860;13.466;2022-12-18T03:35:22;-9.90;89.50
3194;DHT22;1608;50.860;13.466;2022-12-18T03:37:50;-9.80;89.70
3194;DHT22;1608;50.860;13.466;2022-12-18T03:40:18;-11.20;87.80
3194;DHT22;1608;50.860;13.466;2022-12-18T03:42:51;-9.90;89.10
3194;DHT22;1608;50.860;13.466;2022-12-18T03:45:22;-9.90;88.80
3194;DHT22;1608;50.860;13.466;2022-12-18T03:47:59;-10.00;89.50
3194;DHT22;1608;50.860;13.466;2022-12-18T03:50:35;-10.00;89.40
3194;DHT22;1608;50.860;13.466;2022-12-18T03:53:14;-10.10;89.20
3194;DHT22;1608;50.860;13.466;2022-12-18T03:55:44;-10.20;88.10
3194;DHT22;1608;50.860;13.466;2022-12-18T03:58:17;-10.10;89.10
3194;DHT22;1608;50.860;13.466;2022-12-18T04:00:46;-10.20;89.00
3194;DHT22;1608;50.860;13.466;2022-12-18T04:03:15;-10.20;90.20
3194;DHT22;1608;50.860;13.466;2022-12-18T04:05:43;-10.20;89.10
3194;DHT22;1608;50.860;13.466;2022-12-18T04:08:10;-10.20;89.80
3194;DHT22;1608;50.860;13.466;2022-12-18T04:10:37;-10.20;89.80
3194;DHT22;1608;50.860;13.466;2022-12-18T04:13:04;-10.10;89.60
3194;DHT22;1608;50.860;13.466;2022-12-18T04:15:34;-10.10;89.20
3194;DHT22;1608;50.860;13.466;2022-12-18T04:18:02;-10.10;89.00
3194;DHT22;1608;50.860;13.466;2022-12-18T04:20:29;-10.10;89.00
3194;DHT22;1608;50.860;13.466;2022-12-18T04:22:56;-10.10;89.20
3194;DHT22;1608;50.860;13.466;2022-12-18T04:25:22;-10.10;88.80
3194;DHT22;1608;50.860;13.466;2022-12-18T04:27:49;-10.20;89.50
3194;DHT22;1608;50.860;13.466;2022-12-18T04:30:16;-10.20;89.40
3194;DHT22;1608;50.860;13.466;2022-12-18T04:32:44;-10.20;89.00
3194;DHT22;1608;50.860;13.466;2022-12-18T04:35:11;-10.20;88.10
3194;DHT22;1608;50.860;13.466;2022-12-18T04:37:38;-10.20;88.70
3194;DHT22;1608;50.860;13.466;2022-12-18T04:40:06;-10.20;88.70
3194;DHT22;1608;50.860;13.466;2022-12-18T04:42:33;-10.20;89.10
3194;DHT22;1608;50.860;13.466;2022-12-18T04:44:59;-10.30;88.30
3194;DHT22;1608;50.860;13.466;2022-12-18T04:47:26;-10.30;89.10
3194;DHT22;1608;50.860;13.466;2022-12-18T04:49:54;-10.30;89.30
3194;DHT22;1608;50.860;13.466;2022-12-18T04:52:21;-10.20;89.40
3194;DHT22;1608;50.860;13.466;2022-12-18T04:54:48;-10.30;87.50
3194;DHT22;1608;50.860;13.466;2022-12-18T04:57:15;-10.40;88.10
3194;DHT22;1608;50.860;13.466;2022-12-18T04:59:43;-10.40;88.40
3194;DHT22;1608;50.860;13.466;2022-12-18T05:02:10;-10.40;88.40
3194;DHT22;1608;50.860;13.466;2022-12-18T05:04:37;-10.40;87.60
3194;DHT22;1608;50.860;13.466;2022-12-18T05:07:05;-10.40;88.10
3194;DHT22;1608;50.860;13.466;2022-12-18T05:09:32;-10.40;87.80
3194;DHT22;1608;50.860;13.466;2022-12-18T05:11:59;-10.40;87.80
3194;DHT22;1608;50.860;13.466;2022-12-18T05:14:25;-10.40;87.70
3194;DHT22;1608;50.860;13.466;2022-12-18T05:16:53;-10.40;88.30
3194;DHT22;1608;50.860;13.466;2022-12-18T05:19:19;-10.40;88.50
3194;DHT22;1608;50.860;13.466;2022-12-18T05:21:46;-10.40;88.40
3194;DHT22;1608;50.860;13.466;2022-12-18T05:24:14;-10.30;95.40
3194;DHT22;1608;50.860;13.466;2022-12-18T05:26:41;-10.40;88.30
3194;DHT22;1608;50.860;13.466;2022-12-18T05:29:08;-10.40;88.30
3194;DHT22;1608;50.860;13.466;2022-12-18T05:31:37;-10.40;88.40
3194;DHT22;1608;50.860;13.466;2022-12-18T05:34:04;-10.40;93.60
3194;DHT22;1608;50.860;13.466;2022-12-18T05:36:31;-10.40;88.00
3194;DHT22;1608;50.860;13.466;2022-12-18T05:38:58;-10.50;87.50
3194;DHT22;1608;50.860;13.466;2022-12-18T05:41:27;-10.60;87.70
3194;DHT22;1608;50.860;13.466;2022-12-18T05:43:54;-10.60;88.30
3194;DHT22;1608;50.860;13.466;2022-12-18T05:46:21;-12.20;86.10
3194;DHT22;1608;50.860;13.466;2022-12-18T05:48:47;-10.70;88.20
3194;DHT22;1608;50.860;13.466;2022-12-18T05:51:16;-10.60;88.00
3194;DHT22;1608;50.860;13.466;2022-12-18T05:53:44;-10.70;87.80
3194;DHT22;1608;50.860;13.466;2022-12-18T05:56:13;-10.60;87.80
3194;DHT22;1608;50.860;13.466;2022-12-18T05:58:42;-10.60;88.10
3194;DHT22;1608;50.860;13.466;2022-12-18T06:01:11;-10.70;87.80
3194;DHT22;1608;50.860;13.466;2022-12-18T06:03:39;-10.70;87.80
3194;DHT22;1608;50.860;13.466;2022-12-18T06:06:13;-10.70;87.10
3194;DHT22;1608;50.860;13.466;2022-12-18T06:08:40;-10.70;87.40
3194;DHT22;1608;50.860;13.466;2022-12-18T06:11:07;-10.70;87.10
3194;DHT22;1608;50.860;13.466;2022-12-18T06:13:33;-10.80;87.50
3194;DHT22;1608;50.860;13.466;2022-12-18T06:16:03;-10.80;87.50
3194;DHT22;1608;50.860;13.466;2022-12-18T06:18:30;-10.80;87.40
3194;DHT22;1608;50.860;13.466;2022-12-18T06:20:57;-10.80;87.20
3194;DHT22;1608;50.860;13.466;2022-12-18T06:23:24;-10.80;87.30
3194;DHT22;1608;50.860;13.466;2022-12-18T06:25:51;-10.80;87.00
3194;DHT22;1608;50.860;13.466;2022-12-18T06:28:19;-10.80;87.20
3194;DHT22;1608;50.860;13.466;2022-12-18T06:30:46;-10.80;87.20
3194;DHT22;1608;50.860;13.466;2022-12-18T06:33:15;-10.80;86.70
3194;DHT22;1608;50.860;13.466;2022-12-18T06:35:42;-10.90;85.80
3194;DHT22;1608;50.860;13.466;2022-12-18T06:38:09;-10.90;86.50
3194;DHT22;1608;50.860;13.466;2022-12-18T06:40:37;-10.90;86.50
3194;DHT22;1608;50.860;13.466;2022-12-18T06:43:03;-10.90;86.70
3194;DHT22;1608;50.860;13.466;2022-12-18T06:45:30;-10.90;86.30
3194;DHT22;1608;50.860;13.466;2022-12-18T06:47:57;-10.90;87.00
3194;DHT22;1608;50.860;13.466;2022-12-18T06:50:25;-10.90;87.10
3194;DHT22;1608;50.860;13.466;2022-12-18T06:52:52;-10.90;87.00
3194;DHT22;1608;50.860;13.466;2022-12-18T06:55:19;-11.00;87.20
3194;DHT22;1608;50.860;13.466;2022-12-18T06:57:46;-10.90;87.90
3194;DHT22;1608;50.860;13.466;2022-12-18T07:00:13;-11.00;87.60
3194;DHT22;1608;50.860;13.466;2022-12-18T07:02:40;-11.00;87.60
3194;DHT22;1608;50.860;13.466;2022-12-18T07:05:07;-11.00;86.80
3194;DHT22;1608;50.860;13.466;2022-12-18T07:07:35;-11.10;87.40
3194;DHT22;1608;50.860;13.466;2022-12-18T07:10:03;-11.10;86.90
3194;DHT22;1608;50.860;13.466;2022-12-18T07:12:30;-11.10;86.70
3194;DHT22;1608;50.860;13.466;2022-12-18T07:14:56;-11.20;86.60
3194;DHT22;1608;50.860;13.466;2022-12-18T07:17:23;-11.20;87.30
3194;DHT22;1608;50.860;13.466;2022-12-18T07:19:50;-11.10;88.20
3194;DHT22;1608;50.860;13.466;2022-12-18T07:22:17;-11.00;88.30
3194;DHT22;1608;50.860;13.466;2022-12-18T07:24:45;-11.00;87.50
3194;DHT22;1608;50.860;13.466;2022-12-18T07:27:12;-11.00;88.10
3194;DHT22;1608;50.860;13.466;2022-12-18T07:29:39;-11.00;88.30
3194;DHT22;1608;50.860;13.466;2022-12-18T07:32:06;-10.90;88.40
3194;DHT22;1608;50.860;13.466;2022-12-18T07:34:33;-10.90;88.00
3194;DHT22;1608;50.860;13.466;2022-12-18T07:36:59;-10.80;87.90
3194;DHT22;1608;50.860;13.466;2022-12-18T07:39:26;-10.80;88.00
3194;DHT22;1608;50.860;13.466;2022-12-18T07:41:54;-10.70;87.80
3194;DHT22;1608;50.860;13.466;2022-12-18T07:44:39;-10.40;87.00
3194;DHT22;1608;50.860;13.466;2022-12-18T07:47:05;-10.40;87.50
3194;DHT22;1608;50.860;13.466;2022-12-18T07:49:32;-10.30;87.90
3194;DHT22;1608;50.860;13.466;2022-12-18T07:51:59;-10.20;88.10
3194;DHT22;1608;50.860;13.466;2022-12-18T07:54:27;-10.10;87.30
3194;DHT22;1608;50.860;13.466;2022-12-18T07:56:55;-10.00;88.00
3194;DHT22;1608;50.860;13.466;2022-12-18T07:59:22;-9.90;88.20
3194;DHT22;1608;50.860;13.466;2022-12-18T08:01:48;-9.80;88.20
3194;DHT22;1608;50.860;13.466;2022-12-18T08:04:15;-9.60;96.20
3194;DHT22;1608;50.860;13.466;2022-12-18T08:06:43;-9.70;88.70
3194;DHT22;1608;50.860;13.466;2022-12-18T08:09:10;-9.60;89.40
3194;DHT22;1608;50.860;13.466;2022-12-18T08:11:37;-9.50;90.20
3194;DHT22;1608;50.860;13.466;2022-12-18T08:14:05;-9.40;97.70
3194;DHT22;1608;50.860;13.466;2022-12-18T08:16:32;-9.40;91.20
3194;DHT22;1608;50.860;13.466;2022-12-18T08:18:59;-9.20;91.70
3194;DHT22;1608;50.860;13.466;2022-12-18T08:21:27;-9.10;92.20
3194;DHT22;1608;50.860;13.466;2022-12-18T08:23:56;-9.10;93.00
3194;DHT22;1608;50.860;13.466;2022-12-18T08:26:24;-9.10;93.50
3194;DHT22;1608;50.860;13.466;2022-12-18T08:28:52;-8.80;93.60
3194;DHT22;1608;50.860;13.466;2022-12-18T08:31:21;-8.70;93.70
3194;DHT22;1608;50.860;13.466;2022-12-18T08:33:49;-8.50;94.20
3194;DHT22;1608;50.860;13.466;2022-12-18T08:36:16;-8.30;94.60
3194;DHT22;1608;50.860;13.466;2022-12-18T08:38:43;-8.10;95.00
3194;DHT22;1608;50.860;13.466;2022-12-18T08:41:11;-7.90;95.90
3194;DHT22;1608;50.860;13.466;2022-12-18T08:43:38;-7.70;95.60
3194;DHT22;1608;50.860;13.466;2022-12-18T08:46:25;-7.40;95.80
3194;DHT22;1608;50.860;13.466;2022-12-18T08:48:53;-7.30;96.60
3194;DHT22;1608;50.860;13.466;2022-12-18T08:51:20;-7.10;96.60
3194;DHT22;1608;50.860;13.466;2022-12-18T08:53:47;-7.00;97.70
3194;DHT22;1608;50.860;13.466;2022-12-18T08:56:15;-6.80;97.70
3194;DHT22;1608;50.860;13.466;2022-12-18T08:58:42;-6.80;99.70
3194;DHT22;1608;50.860;13.466;2022-12-18T09:01:11;-6.60;99.90
3194;DHT22;1608;50.860;13.466;2022-12-18T09:03:39;-6.40;99.90
3194;DHT22;1608;50.860;13.466;2022-12-18T09:06:07;-6.10;99.90
3194;DHT22;1608;50.860;13.466;2022-12-18T09:08:34;-5.90;99.90
3194;DHT22;1608;50.860;13.466;2022-12-18T09:11:02;-5.70;99.90
3194;DHT22;1608;50.860;13.466;2022-12-18T09:13:29;-5.50;99.90
3194;DHT22;1608;50.860;13.466;2022-12-18T09:15:56;-5.30;99.90
3194;DHT22;1608;50.860;13.466;2022-12-18T09:18:23;-5.10;99.90
3194;DHT22;1608;50.860;13.466;2022-12-18T09:20:52;-5.00;99.90
3194;DHT22;1608;50.860;13.466;2022-12-18T09:23:19;-4.90;99.90
3194;DHT22;1608;50.860;13.466;2022-12-18T09:25:46;-4.70;99.90
3194;DHT22;1608;50.860;13.466;2022-12-18T09:28:15;-4.60;99.90
3194;DHT22;1608;50.860;13.466;2022-12-18T09:30:44;-4.50;99.90
3194;DHT22;1608;50.860;13.466;2022-12-18T09:33:12;-4.40;99.90
3194;DHT22;1608;50.860;13.466;2022-12-18T09:35:40;-4.30;99.90
3194;DHT22;1608;50.860;13.466;2022-12-18T09:38:12;-4.20;99.90
3194;DHT22;1608;50.860;13.466;2022-12-18T09:40:43;-4.20;99.90
3194;DHT22;1608;50.860;13.466;2022-12-18T09:43:15;-4.20;99.90
3194;DHT22;1608;50.860;13.466;2022-12-18T09:45:45;-4.00;99.90
3194;DHT22;1608;50.860;13.466;2022-12-18T09:48:17;-4.00;99.90
3194;DHT22;1608;50.860;13.466;2022-12-18T09:50:45;-3.90;99.90
3194;DHT22;1608;50.860;13.466;2022-12-18T09:53:18;-3.80;99.90
3194;DHT22;1608;50.860;13.466;2022-12-18T09:55:47;-3.70;99.90
3194;DHT22;1608;50.860;13.466;2022-12-18T09:58:20;-3.60;99.90
3194;DHT22;1608;50.860;13.466;2022-12-18T10:00:51;-3.60;99.90
3194;DHT22;1608;50.860;13.466;2022-12-18T10:03:18;-3.40;99.90
3194;DHT22;1608;50.860;13.466;2022-12-18T10:05:54;-3.30;99.90
3194;DHT22;1608;50.860;13.466;2022-12-18T10:08:33;-3.30;99.90
3194;DHT22;1608;50.860;13.466;2022-12-18T10:11:16;-3.30;99.90
3194;DHT22;1608;50.860;13.466;2022-12-18T10:13:52;-3.20;99.90
3194;DHT22;1608;50.860;13.466;2022-12-18T10:16:23;-3.20;99.90
3194;DHT22;1608;50.860;13.466;2022-12-18T10:19:21;-3.20;99.90
3194;DHT22;1608;50.860;13.466;2022-12-18T10:21:58;-3.10;99.90
3194;DHT22;1608;50.860;13.466;2022-12-18T10:24:33;-2.60;99.90
3194;DHT22;1608;50.860;13.466;2022-12-18T10:27:13;-3.00;99.90
3194;DHT22;1608;50.860;13.466;2022-12-18T10:29:42;-2.80;99.90
3194;DHT22;1608;50.860;13.466;2022-12-18T10:32:14;-1.50;99.90
3194;DHT22;1608;50.860;13.466;2022-12-18T10:34:44;-2.50;99.90
3194;DHT22;1608;50.860;13.466;2022-12-18T10:37:15;-2.50;99.90
3194;DHT22;1608;50.860;13.466;2022-12-18T10:39:44;-2.40;99.90
3194;DHT22;1608;50.860;13.466;2022-12-18T10:42:17;-2.30;99.90
3194;DHT22;1608;50.860;13.466;2022-12-18T10:44:44;-2.30;99.90
3194;DHT22;1608;50.860;13.466;2022-12-18T10:47:14;-2.20;99.90
3194;DHT22;1608;50.860;13.466;2022-12-18T10:49:48;-2.10;99.90
3194;DHT22;1608;50.860;13.466;2022-12-18T10:52:18;-2.00;99.90
3194;DHT22;1608;50.860;13.466;2022-12-18T10:54:50;-1.90;99.90
3194;DHT22;1608;50.860;13.466;2022-12-18T10:57:30;-2.00;99.90
3194;DHT22;1608;50.860;13.466;2022-12-18T11:00:00;-1.90;99.90
3194;DHT22;1608;50.860;13.466;2022-12-18T11:02:34;-1.90;99.90
3194;DHT22;1608;50.860;13.466;2022-12-18T11:05:02;-1.80;99.90
3194;DHT22;1608;50.860;13.466;2022-12-18T11:07:47;-1.70;99.90
3194;DHT22;1608;50.860;13.466;2022-12-18T11:10:18;-1.70;99.90
3194;DHT22;1608;50.860;13.466;2022-12-18T11:12:45;-1.70;99.90
3194;DHT22;1608;50.860;13.466;2022-12-18T11:15:16;-1.80;99.90
3194;DHT22;1608;50.860;13.466;2022-12-18T11:17:48;-1.80;99.90
3194;DHT22;1608;50.860;13.466;2022-12-18T11:20:30;-1.80;99.90
3194;DHT22;1608;50.860;13.466;2022-12-18T11:22:59;-1.70;99.90
3194;DHT22;1608;50.860;13.466;2022-12-18T11:25:28;-1.60;99.90
3194;DHT22;1608;50.860;13.466;2022-12-18T11:27:57;-1.60;99.90
3194;DHT22;1608;50.860;13.466;2022-12-18T11:30:27;-1.60;99.90
3194;DHT22;1608;50.860;13.466;2022-12-18T11:33:01;-1.50;99.90
3194;DHT22;1608;50.860;13.466;2022-12-18T11:35:43;-1.40;99.90
3194;DHT22;1608;50.860;13.466;2022-12-18T11:38:18;-1.30;99.90
3194;DHT22;1608;50.860;13.466;2022-12-18T11:40:54;-1.30;99.90
3194;DHT22;1608;50.860;13.466;2022-12-18T11:43:27;-1.20;99.90
3194;DHT22;1608;50.860;13.466;2022-12-18T11:45:58;-1.30;99.90
3194;DHT22;1608;50.860;13.466;2022-12-18T11:48:28;-1.20;99.90
3194;DHT22;1608;50.860;13.466;2022-12-18T11:50:58;-1.20;99.90
3194;DHT22;1608;50.860;13.466;2022-12-18T11:53:26;-1.20;99.90
3194;DHT22;1608;50.860;13.466;2022-12-18T11:56:02;-1.10;99.90
3194;DHT22;1608;50.860;13.466;2022-12-18T11:58:46;-1.10;99.90
3194;DHT22;1608;50.860;13.466;2022-12-18T12:01:33;-1.10;99.90
3194;DHT22;1608;50.860;13.466;2022-12-18T12:04:25;-1.20;99.90
3194;DHT22;1608;50.860;13.466;2022-12-18T12:07:02;-1.10;99.90
3194;DHT22;1608;50.860;13.466;2022-12-18T12:09:40;-1.10;99.90
3194;DHT22;1608;50.860;13.466;2022-12-18T12:12:22;-1.00;99.90
3194;DHT22;1608;50.860;13.466;2022-12-18T12:14:57;-1.00;99.90
3194;DHT22;1608;50.860;13.466;2022-12-18T12:17:33;-1.00;99.90
3194;DHT22;1608;50.860;13.466;2022-12-18T12:20:10;-1.00;99.90
3194;DHT22;1608;50.860;13.466;2022-12-18T12:22:46;-1.00;99.90
3194;DHT22;1608;50.860;13.466;2022-12-18T12:25:25;-1.00;99.90
3194;DHT22;1608;50.860;13.466;2022-12-18T12:28:06;-2.80;99.90
3194;DHT22;1608;50.860;13.466;2022-12-18T12:30:47;-1.00;99.90
3194;DHT22;1608;50.860;13.466;2022-12-18T12:33:28;-1.10;99.90
3194;DHT22;1608;50.860;13.466;2022-12-18T12:36:03;-1.10;99.90
3194;DHT22;1608;50.860;13.466;2022-12-18T12:38:37;-1.10;99.90
3194;DHT22;1608;50.860;13.466;2022-12-18T12:41:11;-1.20;99.90
3194;DHT22;1608;50.860;13.466;2022-12-18T12:44:02;-1.30;99.90
3194;DHT22;1608;50.860;13.466;2022-12-18T12:46:32;-1.40;99.90
3194;DHT22;1608;50.860;13.466;2022-12-18T12:49:03;-1.40;99.90
3194;DHT22;1608;50.860;13.466;2022-12-18T12:51:36;-1.40;99.90
3194;DHT22;1608;50.860;13.466;2022-12-18T12:54:08;-1.40;99.90
3194;DHT22;1608;50.860;13.466;2022-12-18T12:56:41;-1.40;99.90
3194;DHT22;1608;50.860;13.466;2022-12-18T12:59:15;-1.50;99.90
3194;DHT22;1608;50.860;13.466;2022-12-18T13:01:52;-1.50;99.90
3194;DHT22;1608;50.860;13.466;2022-12-18T13:04:27;-1.40;99.90
3194;DHT22;1608;50.860;13.466;2022-12-18T13:07:01;-1.40;99.90
3194;DHT22;1608;50.860;13.466;2022-12-18T13:09:31;-1.50;99.90
3194;DHT22;1608;50.860;13.466;2022-12-18T13:12:02;-1.50;99.90
3194;DHT22;1608;50.860;13.466;2022-12-18T13:14:48;-1.60;99.90
3194;DHT22;1608;50.860;13.466;2022-12-18T13:17:28;-1.60;99.90
3194;DHT22;1608;50.860;13.466;2022-12-18T13:20:08;-1.50;99.90
3194;DHT22;1608;50.860;13.466;2022-12-18T13:22:37;-1.50;99.90
3194;DHT22;1608;50.860;13.466;2022-12-18T13:25:33;-1.50;99.90
3194;DHT22;1608;50.860;13.466;2022-12-18T13:28:06;-1.60;99.90
3194;DHT22;1608;50.860;13.466;2022-12-18T13:30:59;-1.60;99.90
3194;DHT22;1608;50.860;13.466;2022-12-18T13:33:47;-1.70;99.90
3194;DHT22;1608;50.860;13.466;2022-12-18T13:36:30;-1.70;99.90
3194;DHT22;1608;50.860;13.466;2022-12-18T13:39:22;-1.70;99.90
3194;DHT22;1608;50.860;13.466;2022-12-18T13:41:51;-1.70;99.90
3194;DHT22;1608;50.860;13.466;2022-12-18T13:44:32;-1.70;99.90
3194;DHT22;1608;50.860;13.466;2022-12-18T13:47:01;-1.60;99.90
3194;DHT22;1608;50.860;13.466;2022-12-18T13:49:37;-1.60;99.90
3194;DHT22;1608;50.860;13.466;2022-12-18T13:52:16;-1.60;99.90
3194;DHT22;1608;50.860;13.466;2022-12-18T13:54:47;-1.70;99.90
3194;DHT22;1608;50.860;13.466;2022-12-18T13:57:26;-1.60;99.90
3194;DHT22;1608;50.860;13.466;2022-12-18T13:59:53;-1.70;99.90
3194;DHT22;1608;50.860;13.466;2022-12-18T14:02:22;-1.70;99.90
3194;DHT22;1608;50.860;13.466;2022-12-18T14:04:51;-1.50;99.90
3194;DHT22;1608;50.860;13.466;2022-12-18T14:07:19;-1.50;99.90
3194;DHT22;1608;50.860;13.466;2022-12-18T14:09:50;-1.50;99.90
3194;DHT22;1608;50.860;13.466;2022-12-18T14:12:19;-1.50;99.90
3194;DHT22;1608;50.860;13.466;2022-12-18T14:15:09;-1.50;99.90
3194;DHT22;1608;50.860;13.466;2022-12-18T14:17:42;-1.60;99.90
3194;DHT22;1608;50.860;13.466;2022-12-18T14:20:13;-1.60;99.90
3194;DHT22;1608;50.860;13.466;2022-12-18T14:22:43;-1.60;99.90
3194;DHT22;1608;50.860;13.466;2022-12-18T14:25:19;-1.60;99.90
3194;DHT22;1608;50.860;13.466;2022-12-18T14:27:48;-1.70;99.90
3194;DHT22;1608;50.860;13.466;2022-12-18T14:30:24;-1.60;99.90
3194;DHT22;1608;50.860;13.466;2022-12-18T14:33:04;-1.70;99.90
3194;DHT22;1608;50.860;13.466;2022-12-18T14:35:32;-1.70;99.90
3194;DHT22;1608;50.860;13.466;2022-12-18T14:38:26;-1.70;99.90
3194;DHT22;1608;50.860;13.466;2022-12-18T14:40:54;-1.70;99.90
3194;DHT22;1608;50.860;13.466;2022-12-18T14:43:21;-1.70;99.90
3194;DHT22;1608;50.860;13.466;2022-12-18T14:45:48;-1.80;99.90
3194;DHT22;1608;50.860;13.466;2022-12-18T14:48:19;-1.80;99.90
3194;DHT22;1608;50.860;13.466;2022-12-18T14:50:55;-1.90;99.90
3194;DHT22;1608;50.860;13.466;2022-12-18T14:53:29;-2.00;99.80
3194;DHT22;1608;50.860;13.466;2022-12-18T14:55:58;-2.00;99.20
3194;DHT22;1608;50.860;13.466;2022-12-18T14:58:25;-2.00;98.70
3194;DHT22;1608;50.860;13.466;2022-12-18T15:00:52;-2.00;98.80
3194;DHT22;1608;50.860;13.466;2022-12-18T15:03:21;-2.10;99.30
3194;DHT22;1608;50.860;13.466;2022-12-18T15:05:48;-2.10;99.90
3194;DHT22;1608;50.860;13.466;2022-12-18T15:08:30;-2.00;98.50
3194;DHT22;1608;50.860;13.466;2022-12-18T15:10:57;-2.10;98.60
3194;DHT22;1608;50.860;13.466;2022-12-18T15:13:24;-2.20;99.70
3194;DHT22;1608;50.860;13.466;2022-12-18T15:15:52;-2.50;99.20
3194;DHT22;1608;50.860;13.466;2022-12-18T15:18:23;-2.50;99.30
3194;DHT22;1608;50.860;13.466;2022-12-18T15:20:55;-2.50;99.40
3194;DHT22;1608;50.860;13.466;2022-12-18T15:23:24;-2.60;99.40
3194;DHT22;1608;50.860;13.466;2022-12-18T15:25:56;-2.60;99.50
3194;DHT22;1608;50.860;13.466;2022-12-18T15:28:25;-2.60;99.40
3194;DHT22;1608;50.860;13.466;2022-12-18T15:31:01;-2.60;99.40
3194;DHT22;1608;50.860;13.466;2022-12-18T15:33:32;-4.30;98.70
3194;DHT22;1608;50.860;13.466;2022-12-18T15:36:00;-2.70;99.30
3194;DHT22;1608;50.860;13.466;2022-12-18T15:38:27;-2.60;99.50
3194;DHT22;1608;50.860;13.466;2022-12-18T15:40:55;-2.70;99.40
3194;DHT22;1608;50.860;13.466;2022-12-18T15:43:23;-2.60;99.00
3194;DHT22;1608;50.860;13.466;2022-12-18T15:46:06;-2.60;98.90
3194;DHT22;1608;50.860;13.466;2022-12-18T15:48:39;-2.70;98.70
3194;DHT22;1608;50.860;13.466;2022-12-18T15:51:11;-2.60;98.80
3194;DHT22;1608;50.860;13.466;2022-12-18T15:53:40;-2.60;98.20
3194;DHT22;1608;50.860;13.466;2022-12-18T15:56:09;-2.70;98.30
3194;DHT22;1608;50.860;13.466;2022-12-18T15:58:54;-2.60;98.60
3194;DHT22;1608;50.860;13.466;2022-12-18T16:01:22;-2.60;98.00
3194;DHT22;1608;50.860;13.466;2022-12-18T16:03:50;-2.60;98.30